createdAt,value
2022-12-23T10:21:47.812Z,98943.75
2022-12-23T10:23:30.536Z,98947.66
2022-12-23T10:25:04.612Z,98945.34
2022-12-23T10:26:48.901Z,98957.19
2022-12-23T10:28:21.084Z,98951.88
2022-12-23T10:29:53.263Z,98956.41
2022-12-23T10:31:41.369Z,98961.59
2022-12-23T10:33:20.723Z,98966.66
2022-12-23T10:35:04.884Z,98950.72
2022-12-23T10:36:48.846Z,98946.28
2022-12-23T10:38:39.798Z,98957.00
2022-12-23T10:40:21.596Z,98961.78
2022-12-23T10:42:20.479Z,98960.34
2022-12-23T10:44:13.198Z,98958.59
2022-12-23T10:46:04.014Z,98965.56
2022-12-23T10:48:23.866Z,98957.56
2022-12-23T10:50:24.100Z,98953.22
2022-12-23T10:52:09.407Z,98958.50
2022-12-23T10:54:13.009Z,98965.16
2022-12-23T10:55:45.645Z,98952.84
2022-12-23T10:57:19.927Z,98961.03
2022-12-23T10:58:56.802Z,98962.47
2022-12-23T11:00:29.370Z,98959.94
2022-12-23T11:02:11.104Z,98961.19
2022-12-23T11:04:05.850Z,98968.31
2022-12-23T11:05:38.301Z,98969.34
2022-12-23T11:09:21.993Z,98956.53
2022-12-23T11:10:54.947Z,98949.94
2022-12-23T11:12:43.185Z,98951.88
2022-12-23T11:14:40.173Z,98956.63
2022-12-23T11:16:25.762Z,98963.25
2022-12-23T11:18:11.593Z,98961.13
2022-12-23T11:19:45.197Z,98957.38
2022-12-23T11:21:17.987Z,98965.84
2022-12-23T11:22:55.948Z,98957.72
2022-12-23T11:24:39.741Z,98960.25
2022-12-23T11:26:20.669Z,98954.56
2022-12-23T11:27:59.041Z,98959.59
2022-12-23T11:29:37.488Z,98954.22
2022-12-23T11:31:14.576Z,98952.81
2022-12-23T11:32:47.127Z,98951.22
2022-12-23T11:34:22.609Z,98940.81
2022-12-23T11:36:13.151Z,98949.75
2022-12-23T11:37:45.319Z,98946.94
2022-12-23T11:39:26.790Z,98957.31
2022-12-23T11:40:59.487Z,98956.38
2022-12-23T11:42:37.874Z,98962.44
2022-12-23T11:44:18.836Z,98962.94
2022-12-23T11:46:16.411Z,98961.69
2022-12-23T11:47:49.496Z,98951.53
2022-12-23T11:49:23.363Z,98955.72
2022-12-23T11:51:01.782Z,98951.63
2022-12-23T11:52:34.278Z,98957.53
2022-12-23T11:54:07.188Z,98948.38
2022-12-23T11:56:05.070Z,98957.84
2022-12-23T11:57:44.809Z,98952.13
2022-12-23T11:59:31.839Z,98950.16
2022-12-23T12:01:15.072Z,98944.44
2022-12-23T12:02:51.140Z,98943.06
2022-12-23T12:04:25.795Z,98943.84
2022-12-23T12:06:01.303Z,98950.69
2022-12-23T12:07:34.153Z,98956.63
2022-12-23T12:09:07.144Z,98945.88
2022-12-23T12:10:42.321Z,98950.69
2022-12-23T12:12:20.627Z,98943.38
2022-12-23T12:14:02.745Z,98949.84
2022-12-23T12:15:57.711Z,98936.63
2022-12-23T12:17:41.451Z,98936.81
2022-12-23T12:19:26.113Z,98957.28
2022-12-23T12:21:15.681Z,98947.78
2022-12-23T12:23:00.028Z,98952.25
2022-12-23T12:24:41.833Z,98949.88
2022-12-23T12:26:35.034Z,98952.94
2022-12-23T12:28:18.004Z,98957.47
2022-12-23T12:30:04.571Z,98953.53
2022-12-23T12:31:44.136Z,98960.13
2022-12-23T12:33:31.021Z,98951.50
2022-12-23T12:35:10.533Z,98960.44
2022-12-23T12:37:02.479Z,98950.44
2022-12-23T12:38:39.311Z,98969.47
2022-12-23T12:40:18.535Z,98951.03
2022-12-23T12:42:05.522Z,98960.59
2022-12-23T12:43:42.659Z,98954.69
2022-12-23T12:45:22.573Z,98951.44
2022-12-23T12:47:44.429Z,98955.03
2022-12-23T12:49:20.512Z,98960.59
2022-12-23T12:51:01.018Z,98950.72
2022-12-23T12:52:39.972Z,98958.09
2022-12-23T12:54:33.845Z,98960.78
2022-12-23T12:56:18.035Z,98963.47
2022-12-23T12:57:50.050Z,98964.56
2022-12-23T12:59:40.086Z,98966.69
2022-12-23T13:01:18.014Z,98971.00
2022-12-23T13:02:56.371Z,98976.34
2022-12-23T13:05:17.667Z,98977.38
2022-12-23T13:07:01.837Z,98975.06
2022-12-23T13:08:37.942Z,98972.69
2022-12-23T13:10:34.246Z,98967.13
2022-12-23T13:12:36.033Z,98974.13
2022-12-23T13:14:18.436Z,98971.78
2022-12-23T13:16:00.129Z,98972.50
2022-12-23T13:17:53.393Z,98978.00
2022-12-23T13:19:38.222Z,98977.63
2022-12-23T13:21:10.477Z,98973.50
2022-12-23T13:22:45.597Z,98973.66
2022-12-23T13:24:37.160Z,98984.22
2022-12-23T13:26:24.727Z,98985.06
2022-12-23T13:27:59.418Z,98970.91
2022-12-23T13:29:59.205Z,98972.56
2022-12-23T13:31:59.185Z,98977.00
2022-12-23T13:33:55.200Z,98973.59
2022-12-23T13:36:01.225Z,98974.97
2022-12-23T13:37:50.364Z,98978.22
2022-12-23T13:39:22.442Z,98992.53
2022-12-23T13:41:00.073Z,98988.91
2022-12-23T13:42:42.130Z,98989.44
2022-12-23T13:44:15.320Z,98993.19
2022-12-23T13:45:49.005Z,98985.44
2022-12-23T13:48:05.093Z,98996.00
2022-12-23T13:49:40.282Z,99001.06
2022-12-23T13:51:26.210Z,98998.75
2022-12-23T13:53:18.707Z,99000.25
2022-12-23T13:55:02.914Z,98994.50
2022-12-23T13:56:35.259Z,98992.59
2022-12-23T13:58:19.197Z,98989.78
2022-12-23T14:00:19.084Z,98990.34
2022-12-23T14:01:52.729Z,98990.00
2022-12-23T14:03:32.758Z,98991.06
2022-12-23T14:05:26.563Z,99001.09
2022-12-23T14:07:00.105Z,99002.53
2022-12-23T14:08:42.086Z,99004.88
2022-12-23T14:10:22.936Z,99008.16
2022-12-23T14:11:59.580Z,99006.34
2022-12-23T14:13:49.927Z,98998.63
2022-12-23T14:15:42.996Z,98997.75
2022-12-23T14:17:25.308Z,98998.41
2022-12-23T14:19:29.603Z,99000.19
2022-12-23T14:21:04.590Z,99002.53
2022-12-23T14:22:59.516Z,99002.84
2022-12-23T14:24:37.498Z,99007.13
2022-12-23T14:26:19.773Z,99009.81
2022-12-23T14:28:33.726Z,99017.88
2022-12-23T14:30:11.833Z,99007.50
2022-12-23T14:31:47.895Z,99011.03
2022-12-23T14:33:30.347Z,99013.31
2022-12-23T14:35:20.563Z,99016.38
2022-12-23T14:37:20.629Z,99010.81
2022-12-23T14:39:11.396Z,99010.22
2022-12-23T14:40:43.654Z,99012.19
2022-12-23T14:42:34.772Z,99004.59
2022-12-23T14:44:36.073Z,99009.06
2022-12-23T14:46:48.387Z,99010.63
2022-12-23T14:48:41.903Z,99010.97
2022-12-23T14:50:35.289Z,99012.72
2022-12-23T14:52:38.027Z,99007.69
2022-12-23T14:54:18.329Z,99010.88
2022-12-23T14:55:52.719Z,99015.56
2022-12-23T14:57:29.819Z,99016.41
2022-12-23T14:59:23.144Z,99020.34
2022-12-23T15:01:12.590Z,99013.88
2022-12-23T15:02:44.926Z,99011.59
2022-12-23T15:04:22.269Z,99009.41
2022-12-23T15:05:55.019Z,99016.94
2022-12-23T15:07:46.616Z,99014.78
2022-12-23T15:09:25.769Z,99009.22
2022-12-23T15:10:58.708Z,99010.66
2022-12-23T15:12:30.728Z,99012.63
2022-12-23T15:14:09.338Z,99011.91
2022-12-23T15:15:57.396Z,98999.19
2022-12-23T15:17:39.068Z,99005.06
2022-12-23T15:19:44.015Z,99014.59
2022-12-23T15:21:16.134Z,99013.53
2022-12-23T15:22:49.575Z,99024.47
2022-12-23T15:24:22.500Z,99019.09
2022-12-23T15:26:00.643Z,99023.22
2022-12-23T15:27:37.486Z,99022.69
2022-12-23T15:29:10.223Z,99030.03
2022-12-23T15:30:56.598Z,99023.75
2022-12-23T15:32:29.704Z,99019.81
2022-12-23T15:34:16.575Z,99024.47
2022-12-23T15:35:49.794Z,99026.94
2022-12-23T15:37:29.449Z,99019.03
2022-12-23T15:39:03.327Z,99029.03
2022-12-23T15:40:38.490Z,99021.53
2022-12-23T15:42:27.847Z,99007.88
2022-12-23T15:44:01.894Z,99019.66
2022-12-23T15:45:39.928Z,99005.50
2022-12-23T15:47:32.375Z,99016.25
2022-12-23T15:49:05.318Z,99013.06
2022-12-23T15:50:42.098Z,99012.22
2022-12-23T15:52:20.097Z,99011.19
2022-12-23T15:53:56.117Z,99006.13
2022-12-23T15:55:31.069Z,99012.75
2022-12-23T15:57:04.589Z,99001.22
2022-12-23T15:58:40.404Z,99006.69
2022-12-23T16:00:28.861Z,99001.66
2022-12-23T16:03:00.330Z,99003.97
2022-12-23T16:04:33.731Z,99004.28
2022-12-23T16:06:15.917Z,99001.28
2022-12-23T16:07:50.964Z,98999.41
2022-12-23T16:09:31.525Z,98991.34
2022-12-23T16:11:21.095Z,98988.50
2022-12-23T16:12:53.264Z,98987.56
2022-12-23T16:14:31.368Z,98984.91
2022-12-23T16:16:40.733Z,99000.28
2022-12-23T16:18:26.332Z,98997.59
2022-12-23T16:20:50.098Z,99001.31
2022-12-23T16:22:30.296Z,98994.50
2022-12-23T16:24:08.592Z,98981.81
2022-12-23T16:25:48.539Z,98986.44
2022-12-23T16:27:41.639Z,98990.38
2022-12-23T16:29:15.279Z,98993.25
2022-12-23T16:30:49.629Z,98995.22
2022-12-23T16:32:21.896Z,98992.13
2022-12-23T16:33:58.633Z,98988.00
2022-12-23T16:35:40.279Z,98994.63
2022-12-23T16:37:12.478Z,98993.38
2022-12-23T16:38:45.126Z,98992.13
2022-12-23T16:40:17.777Z,98998.97
2022-12-23T16:41:50.627Z,98987.69
2022-12-23T16:43:24.499Z,98988.63
2022-12-23T16:44:56.770Z,98984.47
2022-12-23T16:46:34.241Z,98983.28
2022-12-23T16:48:36.533Z,98987.38
2022-12-23T16:50:14.401Z,98981.63
2022-12-23T16:51:47.468Z,98995.94
2022-12-23T16:53:20.770Z,98994.50
2022-12-23T16:54:52.959Z,98991.81
2022-12-23T16:56:29.948Z,98984.31
2022-12-23T16:58:02.078Z,98987.47
2022-12-23T16:59:34.236Z,98988.00
2022-12-23T17:01:06.561Z,98988.00
2022-12-23T17:02:38.742Z,98990.91
2022-12-23T17:04:11.035Z,98988.00
2022-12-23T17:05:44.090Z,98987.06
2022-12-23T17:07:16.174Z,98984.59
2022-12-23T17:08:48.776Z,98984.59
2022-12-23T17:10:20.983Z,98988.72
2022-12-23T17:11:53.751Z,98992.34
2022-12-23T17:13:25.860Z,98996.06
2022-12-23T17:14:58.768Z,98992.66
2022-12-23T17:16:31.334Z,98991.41
2022-12-23T17:18:03.631Z,98986.25
2022-12-23T17:19:35.743Z,98988.41
2022-12-23T17:21:39.085Z,98983.56
2022-12-23T17:23:26.787Z,98979.44
2022-12-23T17:24:58.922Z,98986.44
2022-12-23T17:26:31.145Z,98987.69
2022-12-23T17:28:03.292Z,98993.25
2022-12-23T17:29:35.467Z,98993.66
2022-12-23T17:31:13.949Z,98993.47
2022-12-23T17:32:54.764Z,98994.72
2022-12-23T17:34:26.992Z,99004.22
2022-12-23T17:36:00.072Z,98998.44
2022-12-23T17:37:32.259Z,98994.50
2022-12-23T17:39:04.663Z,99000.59
2022-12-23T17:40:38.732Z,98996.16
2022-12-23T17:42:23.271Z,98994.00
2022-12-23T17:43:57.749Z,98996.16
2022-12-23T17:45:31.118Z,98993.66
2022-12-23T17:47:10.946Z,98983.16
2022-12-23T17:48:43.798Z,98983.31
2022-12-23T17:50:16.258Z,98984.75
2022-12-23T17:51:48.669Z,98976.91
2022-12-23T17:53:20.970Z,98974.44
2022-12-23T17:54:53.757Z,98975.16
2022-12-23T17:56:29.706Z,98976.38
2022-12-23T17:58:02.720Z,98981.25
2022-12-23T17:59:35.000Z,98984.41
2022-12-23T18:01:13.527Z,98975.66
2022-12-23T18:02:47.467Z,98977.84
2022-12-23T18:04:20.920Z,98983.91
2022-12-23T18:06:01.201Z,98985.88
2022-12-23T18:07:34.924Z,98981.75
2022-12-23T18:09:07.272Z,98977.44
2022-12-23T18:10:40.885Z,98979.06
2022-12-23T18:12:34.359Z,98986.06
2022-12-23T18:14:08.221Z,98995.25
2022-12-23T18:15:42.708Z,98985.75
2022-12-23T18:17:16.380Z,99000.13
2022-12-23T18:18:48.602Z,98997.75
2022-12-23T18:20:23.174Z,98997.03
2022-12-23T18:21:57.154Z,98996.81
2022-12-23T18:23:32.160Z,98995.38
2022-12-23T18:25:04.924Z,98987.84
2022-12-23T18:26:37.570Z,98989.59
2022-12-23T18:28:11.408Z,98992.81
2022-12-23T18:29:44.985Z,98978.50
2022-12-23T18:31:24.273Z,98988.66
2022-12-23T18:32:57.127Z,98980.63
2022-12-23T18:34:30.240Z,98985.81
2022-12-23T18:36:03.031Z,98974.88
2022-12-23T18:37:38.300Z,98976.34
2022-12-23T18:39:17.869Z,98969.50
2022-12-23T18:40:53.996Z,98972.72
2022-12-23T18:42:26.764Z,98967.34
2022-12-23T18:43:59.749Z,98969.84
2022-12-23T18:45:38.667Z,98970.56
2022-12-23T18:47:12.281Z,98973.97
2022-12-23T18:48:44.844Z,98964.47
2022-12-23T18:50:17.368Z,98970.34
2022-12-23T18:51:49.505Z,98975.00
2022-12-23T18:53:24.977Z,98976.66
2022-12-23T18:54:57.593Z,98977.38
2022-12-23T18:56:29.832Z,98974.47
2022-12-23T18:58:02.027Z,98975.72
2022-12-23T18:59:37.623Z,98970.56
2022-12-23T19:01:15.029Z,98976.13
2022-12-23T19:02:48.571Z,98979.03
2022-12-23T19:04:20.974Z,98971.69
2022-12-23T19:05:54.389Z,98970.22
2022-12-23T19:07:26.939Z,98969.31
2022-12-23T19:08:59.147Z,98969.09
2022-12-23T19:10:34.110Z,98971.78
2022-12-23T19:12:06.710Z,98971.06
2022-12-23T19:13:38.910Z,98969.63
2022-12-23T19:15:11.531Z,98967.66
2022-12-23T19:16:49.267Z,98967.88
2022-12-23T19:18:23.869Z,98963.94
2022-12-23T19:19:58.391Z,98968.59
2022-12-23T19:21:30.502Z,98967.34
2022-12-23T19:23:02.667Z,98961.44
2022-12-23T19:24:34.763Z,98978.28
2022-12-23T19:26:11.064Z,98976.13
2022-12-23T19:27:44.116Z,98970.56
2022-12-23T19:29:16.865Z,98963.25
2022-12-23T19:30:49.343Z,98963.25
2022-12-23T19:32:24.994Z,98962.00
2022-12-23T19:33:57.354Z,98963.75
2022-12-23T19:35:29.533Z,98968.38
2022-12-23T19:37:01.691Z,98970.16
2022-12-23T19:38:33.941Z,98960.16
2022-12-23T19:40:06.955Z,98961.59
2022-12-23T19:41:38.958Z,98965.91
2022-12-23T19:43:11.043Z,98960.03
2022-12-23T19:44:43.324Z,98965.91
2022-12-23T19:46:16.505Z,98964.47
2022-12-23T19:47:48.733Z,98967.16
2022-12-23T19:49:20.865Z,98965.19
2022-12-23T19:51:00.396Z,98965.19
2022-12-23T19:52:33.246Z,98960.56
2022-12-23T19:54:05.357Z,98966.75
2022-12-23T19:55:37.439Z,98966.53
2022-12-23T19:57:09.578Z,98958.72
2022-12-23T19:58:43.256Z,98957.66
2022-12-23T20:00:16.087Z,98952.28
2022-12-23T20:01:48.919Z,98949.91
2022-12-23T20:03:21.133Z,98957.47
2022-12-23T20:04:53.618Z,98959.63
2022-12-23T20:06:33.251Z,98952.41
2022-12-23T20:08:05.689Z,98954.38
2022-12-23T20:09:38.749Z,98950.25
2022-12-23T20:11:15.374Z,98941.47
2022-12-23T20:12:47.523Z,98944.16
2022-12-23T20:14:21.745Z,98943.66
2022-12-23T20:15:54.129Z,98944.38
2022-12-23T20:17:29.158Z,98943.66
2022-12-23T20:19:01.604Z,98940.44
2022-12-23T20:20:33.809Z,98935.78
2022-12-23T20:22:06.471Z,98928.97
2022-12-23T20:23:38.819Z,98933.09
2022-12-23T20:25:10.884Z,98935.38
2022-12-23T20:26:43.943Z,98931.47
2022-12-23T20:28:16.501Z,98929.81
2022-12-23T20:29:49.021Z,98919.09
2022-12-23T20:31:26.437Z,98924.25
2022-12-23T20:32:59.110Z,98915.47
2022-12-23T20:34:36.711Z,98914.25
2022-12-23T20:36:13.161Z,98907.28
2022-12-23T20:37:45.570Z,98913.50
2022-12-23T20:39:17.709Z,98912.78
2022-12-23T20:40:49.907Z,98906.59
2022-12-23T20:42:22.165Z,98900.84
2022-12-23T20:44:31.604Z,98907.44
2022-12-23T20:45:46.723Z,98899.94
2022-12-23T20:47:18.921Z,98895.09
2022-12-23T20:48:51.678Z,98890.78
2022-12-23T20:50:26.442Z,98889.34
2022-12-23T20:51:58.584Z,98890.47
2022-12-23T20:53:30.947Z,98892.44
2022-12-23T20:55:03.191Z,98887.94
2022-12-23T20:56:35.595Z,98889.22
2022-12-23T20:58:30.685Z,98891.91
2022-12-23T21:00:05.006Z,98885.81
2022-12-23T21:01:39.780Z,98894.72
2022-12-23T21:03:12.008Z,98885.47
2022-12-23T21:04:44.453Z,98882.25
2022-12-23T21:06:16.609Z,98879.25
2022-12-23T21:07:48.680Z,98867.28
2022-12-23T21:09:21.005Z,98869.41
2022-12-23T21:10:57.749Z,98871.59
2022-12-23T21:12:29.967Z,98867.34
2022-12-23T21:14:06.677Z,98862.38
2022-12-23T21:15:39.510Z,98857.38
2022-12-23T21:17:11.708Z,98858.81
2022-12-23T21:18:46.101Z,98862.75
2022-12-23T21:20:18.211Z,98855.59
2022-12-23T21:21:51.461Z,98853.84
2022-12-23T21:23:23.535Z,98854.22
2022-12-23T21:24:55.741Z,98857.44
2022-12-23T21:26:29.551Z,98859.19
2022-12-23T21:28:01.682Z,98857.22
2022-12-23T21:29:33.818Z,98862.59
2022-12-23T21:31:06.732Z,98867.97
2022-12-23T21:32:38.818Z,98864.97
2022-12-23T21:34:18.025Z,98863.00
2022-12-23T21:35:50.116Z,98866.41
2022-12-23T21:37:22.251Z,98865.88
2022-12-23T21:38:54.822Z,98850.50
2022-12-23T21:40:27.296Z,98855.16
2022-12-23T21:41:59.370Z,98852.66
2022-12-23T21:43:31.883Z,98858.56
2022-12-23T21:45:04.673Z,98866.06
2022-12-23T21:46:36.963Z,98871.44
2022-12-23T21:48:09.045Z,98870.72
2022-12-23T21:49:42.513Z,98874.84
2022-12-23T21:51:17.637Z,98872.88
2022-12-23T21:52:49.777Z,98868.94
2022-12-23T21:54:21.852Z,98869.88
2022-12-23T21:55:54.041Z,98872.91
2022-12-23T21:57:26.185Z,98876.84
2022-12-23T21:59:03.968Z,98877.03
2022-12-23T22:00:36.106Z,98869.69
2022-12-23T22:02:15.572Z,98867.22
2022-12-23T22:03:49.419Z,98868.13
2022-12-23T22:05:21.852Z,98856.66
2022-12-23T22:06:53.947Z,98855.63
2022-12-23T22:08:26.314Z,98859.56
2022-12-23T22:09:58.466Z,98855.63
2022-12-23T22:11:33.425Z,98847.25
2022-12-23T22:13:05.687Z,98841.66
2022-12-23T22:14:37.959Z,98845.09
2022-12-23T22:16:12.489Z,98840.06
2022-12-23T22:17:44.768Z,98842.75
2022-12-23T22:19:18.070Z,98846.53
2022-12-23T22:20:50.331Z,98848.66
2022-12-23T22:22:22.439Z,98849.00
2022-12-23T22:23:55.656Z,98848.50
2022-12-23T22:25:27.899Z,98839.72
2022-12-23T22:26:59.985Z,98839.72
2022-12-23T22:28:33.663Z,98847.56
2022-12-23T22:30:06.618Z,98830.75
2022-12-23T22:31:49.400Z,98826.63
2022-12-23T22:33:21.583Z,98833.22
2022-12-23T22:34:53.752Z,98815.88
2022-12-23T22:36:26.240Z,98822.69
2022-12-23T22:37:59.205Z,98809.44
2022-12-23T22:39:31.262Z,98805.53
2022-12-23T22:41:03.654Z,98812.31
2022-12-23T22:42:35.836Z,98809.09
2022-12-23T22:44:09.794Z,98809.81
2022-12-23T22:45:42.120Z,98794.44
2022-12-23T22:47:14.433Z,98797.31
2022-12-23T22:48:46.919Z,98793.91
2022-12-23T22:50:18.968Z,98799.44
2022-12-23T22:51:51.093Z,98806.78
2022-12-23T22:53:29.335Z,98810.91
2022-12-23T22:55:02.043Z,98806.66
2022-12-23T22:56:34.169Z,98816.31
2022-12-23T22:58:06.339Z,98812.19
2022-12-23T22:59:38.455Z,98815.06
2022-12-23T23:01:23.655Z,98822.41
2022-12-23T23:02:55.724Z,98825.09
2022-12-23T23:04:27.868Z,98825.44
2022-12-23T23:06:01.468Z,98819.00
2022-12-23T23:07:33.744Z,98814.88
2022-12-23T23:09:08.600Z,98819.00
2022-12-23T23:10:40.720Z,98812.59
2022-12-23T23:12:12.872Z,98803.81
2022-12-23T23:13:45.130Z,98807.94
2022-12-23T23:15:17.251Z,98804.53
2022-12-23T23:16:49.545Z,98803.28
2022-12-23T23:18:22.812Z,98799.53
2022-12-23T23:19:55.457Z,98799.53
2022-12-23T23:21:27.750Z,98801.50
2022-12-23T23:22:59.875Z,98793.44
2022-12-23T23:24:32.033Z,98794.69
2022-12-23T23:26:05.208Z,98788.78
2022-12-23T23:27:37.315Z,98780.19
2022-12-23T23:29:09.454Z,98774.66
2022-12-23T23:30:41.635Z,98766.06
2022-12-23T23:32:13.860Z,98763.69
2022-12-23T23:33:46.056Z,98771.38
2022-12-23T23:35:18.415Z,98767.78
2022-12-23T23:36:50.556Z,98773.88
2022-12-23T23:38:23.299Z,98762.44
2022-12-23T23:39:55.411Z,98763.84
2022-12-23T23:41:27.652Z,98762.59
2022-12-23T23:42:59.876Z,98766.72
2022-12-23T23:44:32.092Z,98758.66
2022-12-23T23:46:04.373Z,98757.94
2022-12-23T23:47:36.597Z,98749.16
2022-12-23T23:49:08.763Z,98749.72
2022-12-23T23:50:41.094Z,98748.78
2022-12-23T23:52:13.280Z,98762.44
2022-12-23T23:53:45.639Z,98761.72
2022-12-23T23:55:17.967Z,98761.00
2022-12-23T23:56:50.165Z,98773.34
2022-12-23T23:58:22.333Z,98762.28
2022-12-23T23:59:54.526Z,98767.84
